createdAt,value
2022-11-17T00:00:13.377Z,977.29
2022-11-17T00:01:13.472Z,977.23
2022-11-17T00:02:13.530Z,977.21
2022-11-17T00:03:13.536Z,977.21
2022-11-17T00:04:13.982Z,977.23
2022-11-17T00:05:13.129Z,977.23
2022-11-17T00:06:13.129Z,977.13
2022-11-17T00:07:13.234Z,977.12
2022-11-17T00:08:13.192Z,977.15
2022-11-17T00:09:13.776Z,977.14
2022-11-17T00:10:13.727Z,977.15
2022-11-17T00:11:14.080Z,977.15
2022-11-17T00:12:13.372Z,977.09
2022-11-17T00:13:13.451Z,977.15
2022-11-17T00:14:13.465Z,977.10
2022-11-17T00:15:13.390Z,977.08
2022-11-17T00:16:13.307Z,977.06
2022-11-17T00:17:13.502Z,977.11
2022-11-17T00:18:13.479Z,977.06
2022-11-17T00:19:13.470Z,977.05
2022-11-17T00:20:13.678Z,977.04
2022-11-17T00:21:13.590Z,976.98
2022-11-17T00:22:13.550Z,977.03
2022-11-17T00:23:13.490Z,976.97
2022-11-17T00:24:13.365Z,976.91
2022-11-17T00:25:13.443Z,976.93
2022-11-17T00:26:13.431Z,976.88
2022-11-17T00:27:13.206Z,976.85
2022-11-17T00:28:13.299Z,976.79
2022-11-17T00:29:13.323Z,976.81
2022-11-17T00:30:13.440Z,976.75
2022-11-17T00:31:13.513Z,976.65
2022-11-17T00:32:13.606Z,976.70
2022-11-17T00:33:14.034Z,976.67
2022-11-17T00:34:13.903Z,976.62
2022-11-17T00:35:12.845Z,976.59
2022-11-17T00:36:13.809Z,976.54
2022-11-17T00:37:14.585Z,976.51
2022-11-17T00:38:14.228Z,976.53
2022-11-17T00:39:13.564Z,976.46
2022-11-17T00:40:13.762Z,976.41
2022-11-17T00:41:13.786Z,976.33
2022-11-17T00:42:14.200Z,976.29
2022-11-17T00:43:13.450Z,976.23
2022-11-17T00:44:13.817Z,976.18
2022-11-17T00:45:14.160Z,976.22
2022-11-17T00:46:13.693Z,976.18
2022-11-17T00:47:13.912Z,976.12
2022-11-17T00:48:13.492Z,976.02
2022-11-17T00:49:13.422Z,976.02
2022-11-17T00:50:13.320Z,975.97
2022-11-17T00:51:13.369Z,975.86
2022-11-17T00:52:14.626Z,975.83
2022-11-17T00:53:14.151Z,975.83
2022-11-17T00:54:13.444Z,975.79
2022-11-17T00:55:14.009Z,975.76
2022-11-17T00:56:13.356Z,975.79
2022-11-17T00:57:13.292Z,975.72
2022-11-17T00:58:13.655Z,975.70
2022-11-17T00:59:14.088Z,975.71
2022-11-17T01:00:13.134Z,975.63
2022-11-17T01:01:13.274Z,975.61
2022-11-17T01:02:13.722Z,975.61
2022-11-17T01:03:14.206Z,975.58
2022-11-17T01:04:13.205Z,975.52
2022-11-17T01:05:13.242Z,975.54
2022-11-17T01:06:13.190Z,975.56
2022-11-17T01:07:13.196Z,975.51
2022-11-17T01:08:13.208Z,975.46
2022-11-17T01:09:13.125Z,975.48
2022-11-17T01:10:13.197Z,975.38
2022-11-17T01:11:13.415Z,975.39
2022-11-17T01:12:13.559Z,975.42
2022-11-17T01:13:13.447Z,975.39
2022-11-17T01:14:13.661Z,975.39
2022-11-17T01:15:13.624Z,975.32
2022-11-17T01:16:13.560Z,975.30
2022-11-17T01:17:13.642Z,975.32
2022-11-17T01:18:13.758Z,975.24
2022-11-17T01:19:13.695Z,975.20
2022-11-17T01:20:13.605Z,975.13
2022-11-17T01:21:13.461Z,975.16
2022-11-17T01:22:13.313Z,975.21
2022-11-17T01:23:13.662Z,975.17
2022-11-17T01:24:13.694Z,975.19
2022-11-17T01:25:13.890Z,975.15
2022-11-17T01:26:13.199Z,975.25
2022-11-17T01:27:14.630Z,975.17
2022-11-17T01:28:13.681Z,975.15
2022-11-17T01:29:13.564Z,975.19
2022-11-17T01:30:13.522Z,975.23
2022-11-17T01:31:13.457Z,975.20
2022-11-17T01:32:13.528Z,975.18
2022-11-17T01:33:13.456Z,975.18
2022-11-17T01:34:13.686Z,975.23
2022-11-17T01:35:13.509Z,975.22
2022-11-17T01:36:13.643Z,975.19
2022-11-17T01:37:13.512Z,975.16
2022-11-17T01:38:13.415Z,975.20
2022-11-17T01:39:14.286Z,975.09
2022-11-17T01:40:13.226Z,975.14
2022-11-17T01:41:13.122Z,975.15
2022-11-17T01:42:13.121Z,975.12
2022-11-17T01:43:13.575Z,975.07
2022-11-17T01:44:13.872Z,975.05
2022-11-17T01:45:14.010Z,975.04
2022-11-17T01:46:13.054Z,974.94
2022-11-17T01:47:12.940Z,974.91
2022-11-17T01:48:13.230Z,974.83
2022-11-17T01:49:13.621Z,974.85
2022-11-17T01:50:13.975Z,974.88
2022-11-17T01:51:13.280Z,974.85
2022-11-17T01:52:13.227Z,974.78
2022-11-17T01:53:13.373Z,974.77
2022-11-17T01:54:13.563Z,974.78
2022-11-17T01:55:13.437Z,974.73
2022-11-17T01:56:13.672Z,974.69
2022-11-17T01:57:13.919Z,974.67
2022-11-17T01:58:13.270Z,974.64
2022-11-17T01:59:13.275Z,974.64
2022-11-17T02:00:13.430Z,974.58
2022-11-17T02:01:13.472Z,974.61
2022-11-17T02:02:13.435Z,974.64
2022-11-17T02:03:13.424Z,974.58
2022-11-17T02:04:13.800Z,974.54
2022-11-17T02:05:13.969Z,974.60
2022-11-17T02:06:12.896Z,974.49
2022-11-17T02:07:13.299Z,974.53
2022-11-17T02:08:13.966Z,974.50
2022-11-17T02:09:13.086Z,974.56
2022-11-17T02:10:13.297Z,974.49
2022-11-17T02:11:14.213Z,974.53
2022-11-17T02:12:13.169Z,974.44
2022-11-17T02:13:13.149Z,974.34
2022-11-17T02:14:13.013Z,974.34
2022-11-17T02:15:12.962Z,974.34
2022-11-17T02:16:12.931Z,974.30
2022-11-17T02:17:14.437Z,974.30
2022-11-17T02:18:14.515Z,974.28
2022-11-17T02:19:13.510Z,974.20
2022-11-17T02:20:13.683Z,974.19
2022-11-17T02:21:13.780Z,974.16
2022-11-17T02:22:13.862Z,974.18
2022-11-17T02:23:14.254Z,974.09
2022-11-17T02:24:13.531Z,974.07
2022-11-17T02:25:13.521Z,974.10
2022-11-17T02:26:13.585Z,974.08
2022-11-17T02:27:13.892Z,973.98
2022-11-17T02:28:12.860Z,974.00
2022-11-17T02:29:13.940Z,974.02
2022-11-17T02:30:12.976Z,973.95
2022-11-17T02:31:12.992Z,973.92
2022-11-17T02:32:13.452Z,973.97
2022-11-17T02:33:13.547Z,973.86
2022-11-17T02:34:13.506Z,973.91
2022-11-17T02:35:13.744Z,973.90
2022-11-17T02:36:14.133Z,973.84
2022-11-17T02:37:13.820Z,973.85
2022-11-17T02:38:14.110Z,973.79
2022-11-17T02:39:13.051Z,973.84
2022-11-17T02:40:13.009Z,973.78
2022-11-17T02:41:12.889Z,973.83
2022-11-17T02:42:13.065Z,973.78
2022-11-17T02:43:13.389Z,973.82
2022-11-17T02:44:13.244Z,973.76
2022-11-17T02:45:13.305Z,973.71
2022-11-17T02:46:13.480Z,973.68
2022-11-17T02:47:13.763Z,973.68
2022-11-17T02:48:13.786Z,973.66
2022-11-17T02:49:14.022Z,973.64
2022-11-17T02:50:13.139Z,973.63
2022-11-17T02:51:13.059Z,973.63
2022-11-17T02:52:13.062Z,973.60
2022-11-17T02:53:12.975Z,973.59
2022-11-17T02:54:12.920Z,973.54
2022-11-17T02:55:12.928Z,973.49
2022-11-17T02:56:13.324Z,973.60
2022-11-17T02:57:13.287Z,973.59
2022-11-17T02:58:13.584Z,973.64
2022-11-17T02:59:14.473Z,973.59
2022-11-17T03:00:13.553Z,973.59
2022-11-17T03:01:13.733Z,973.56
2022-11-17T03:02:14.194Z,973.55
2022-11-17T03:03:14.727Z,973.49
2022-11-17T03:04:13.683Z,973.43
2022-11-17T03:05:13.863Z,973.48
2022-11-17T03:06:13.861Z,973.48
2022-11-17T03:07:14.193Z,973.43
2022-11-17T03:08:13.264Z,973.34
2022-11-17T03:09:13.192Z,973.32
2022-11-17T03:10:13.344Z,973.41
2022-11-17T03:11:13.273Z,973.40
2022-11-17T03:12:13.194Z,973.29
2022-11-17T03:13:13.379Z,973.23
2022-11-17T03:14:13.334Z,973.29
2022-11-17T03:15:13.379Z,973.25
2022-11-17T03:16:18.568Z,973.25
2022-11-17T03:17:13.735Z,973.24
2022-11-17T03:18:13.773Z,973.15
2022-11-17T03:19:13.682Z,973.27
2022-11-17T03:20:13.654Z,973.26
2022-11-17T03:21:13.583Z,973.15
2022-11-17T03:22:13.711Z,973.24
2022-11-17T03:23:13.705Z,973.14
2022-11-17T03:24:13.666Z,973.13
2022-11-17T03:25:13.686Z,973.15
2022-11-17T03:26:13.628Z,973.17
2022-11-17T03:27:13.567Z,973.12
2022-11-17T03:28:13.417Z,973.16
2022-11-17T03:29:13.348Z,973.20
2022-11-17T03:30:13.270Z,973.15
2022-11-17T03:31:13.390Z,973.15
2022-11-17T03:32:13.363Z,973.06
2022-11-17T03:33:13.419Z,973.13
2022-11-17T03:34:13.350Z,973.09
2022-11-17T03:35:13.426Z,973.04
2022-11-17T03:36:13.420Z,973.07
2022-11-17T03:37:13.573Z,972.98
2022-11-17T03:38:13.729Z,972.94
2022-11-17T03:39:13.943Z,972.93
2022-11-17T03:40:12.926Z,972.95
2022-11-17T03:41:13.121Z,972.93
2022-11-17T03:42:13.072Z,972.91
2022-11-17T03:43:13.449Z,972.83
2022-11-17T03:44:13.319Z,972.93
2022-11-17T03:45:13.254Z,972.91
2022-11-17T03:46:13.567Z,972.87
2022-11-17T03:47:13.537Z,972.83
2022-11-17T03:48:13.622Z,972.91
2022-11-17T03:49:13.439Z,972.75
2022-11-17T03:50:13.257Z,972.85
2022-11-17T03:51:13.174Z,972.84
2022-11-17T03:52:13.304Z,972.86
2022-11-17T03:53:13.457Z,972.86
2022-11-17T03:54:13.450Z,972.91
2022-11-17T03:55:13.602Z,972.94
2022-11-17T03:56:13.703Z,972.84
2022-11-17T03:57:13.668Z,972.90
2022-11-17T03:58:13.969Z,972.85
2022-11-17T03:59:13.377Z,972.79
2022-11-17T04:00:13.674Z,972.81
2022-11-17T04:01:13.771Z,972.82
2022-11-17T04:02:13.911Z,972.80
2022-11-17T04:03:13.103Z,972.85
2022-11-17T04:04:13.061Z,972.82
2022-11-17T04:05:13.168Z,972.69
2022-11-17T04:06:13.015Z,972.84
2022-11-17T04:07:13.047Z,972.85
2022-11-17T04:08:13.095Z,972.84
2022-11-17T04:09:13.303Z,972.78
2022-11-17T04:10:13.161Z,972.77
2022-11-17T04:11:13.382Z,972.71
2022-11-17T04:12:13.286Z,972.76
2022-11-17T04:13:13.261Z,972.76
2022-11-17T04:14:13.167Z,972.72
2022-11-17T04:15:13.194Z,972.78
2022-11-17T04:16:13.130Z,972.77
2022-11-17T04:17:13.156Z,972.66
2022-11-17T04:18:13.418Z,972.79
2022-11-17T04:19:13.325Z,972.75
2022-11-17T04:20:13.347Z,972.75
2022-11-17T04:21:14.050Z,972.79
2022-11-17T04:22:12.937Z,972.74
2022-11-17T04:23:13.220Z,972.75
2022-11-17T04:24:13.154Z,972.75
2022-11-17T04:25:13.268Z,972.73
2022-11-17T04:26:13.141Z,972.65
2022-11-17T04:27:12.984Z,972.58
2022-11-17T04:28:13.047Z,972.58
2022-11-17T04:29:13.222Z,972.64
2022-11-17T04:30:13.265Z,972.49
2022-11-17T04:31:13.326Z,972.61
2022-11-17T04:32:13.284Z,972.52
2022-11-17T04:33:14.618Z,972.47
2022-11-17T04:34:13.667Z,972.61
2022-11-17T04:35:13.781Z,972.44
2022-11-17T04:36:13.997Z,972.47
2022-11-17T04:37:13.521Z,972.35
2022-11-17T04:38:13.502Z,972.41
2022-11-17T04:39:14.186Z,972.36
2022-11-17T04:40:13.409Z,972.49
2022-11-17T04:41:13.348Z,972.47
2022-11-17T04:42:13.223Z,972.47
2022-11-17T04:43:13.467Z,972.48
2022-11-17T04:44:13.564Z,972.46
2022-11-17T04:45:13.701Z,972.43
2022-11-17T04:46:13.800Z,972.43
2022-11-17T04:47:13.732Z,972.38
2022-11-17T04:48:13.739Z,972.35
2022-11-17T04:49:14.072Z,972.31
2022-11-17T04:50:13.157Z,972.36
2022-11-17T04:51:13.400Z,972.30
2022-11-17T04:52:13.412Z,972.30
2022-11-17T04:53:13.381Z,972.27
2022-11-17T04:54:13.621Z,972.30
2022-11-17T04:55:13.494Z,972.26
2022-11-17T04:56:13.653Z,972.29
2022-11-17T04:57:13.777Z,972.29
2022-11-17T04:58:13.731Z,972.34
2022-11-17T04:59:13.838Z,972.33
2022-11-17T05:00:14.178Z,972.32
2022-11-17T05:01:13.238Z,972.32
2022-11-17T05:02:13.283Z,972.28
2022-11-17T05:03:13.784Z,972.28
2022-11-17T05:04:13.762Z,972.27
2022-11-17T05:05:14.184Z,972.30
2022-11-17T05:06:13.217Z,972.20
2022-11-17T05:07:13.354Z,972.39
2022-11-17T05:08:13.331Z,972.23
2022-11-17T05:09:13.233Z,972.25
2022-11-17T05:10:13.258Z,972.27
2022-11-17T05:11:13.614Z,972.24
2022-11-17T05:12:13.941Z,972.34
2022-11-17T05:13:12.917Z,972.31
2022-11-17T05:14:12.728Z,972.24
2022-11-17T05:15:13.820Z,972.20
2022-11-17T05:16:13.934Z,972.19
2022-11-17T05:17:12.880Z,972.22
2022-11-17T05:18:13.845Z,972.25
2022-11-17T05:19:14.217Z,972.18
2022-11-17T05:20:13.372Z,972.16
2022-11-17T05:21:13.518Z,972.18
2022-11-17T05:22:13.544Z,972.11
2022-11-17T05:23:13.808Z,972.12
2022-11-17T05:24:13.910Z,972.13
2022-11-17T05:25:13.017Z,972.12
2022-11-17T05:26:13.020Z,972.11
2022-11-17T05:27:12.905Z,971.98
2022-11-17T05:28:12.791Z,972.02
2022-11-17T05:29:13.784Z,971.98
2022-11-17T05:30:13.696Z,971.96
2022-11-17T05:31:13.979Z,972.00
2022-11-17T05:32:13.143Z,971.88
2022-11-17T05:33:13.018Z,971.96
2022-11-17T05:34:13.397Z,971.96
2022-11-17T05:35:13.369Z,971.99
2022-11-17T05:36:13.224Z,971.96
2022-11-17T05:37:13.200Z,971.98
2022-11-17T05:38:13.055Z,971.82
2022-11-17T05:39:13.365Z,971.93
2022-11-17T05:40:13.275Z,971.94
2022-11-17T05:41:13.263Z,971.93
2022-11-17T05:42:13.207Z,971.94
2022-11-17T05:43:13.203Z,972.02
2022-11-17T05:44:13.161Z,971.95
2022-11-17T05:45:13.404Z,971.97
2022-11-17T05:46:13.621Z,971.89
2022-11-17T05:47:13.706Z,971.94
2022-11-17T05:48:13.718Z,971.89
2022-11-17T05:49:14.249Z,971.93
2022-11-17T05:50:13.162Z,971.85
2022-11-17T05:51:13.515Z,971.84
2022-11-17T05:52:13.493Z,971.84
2022-11-17T05:53:13.777Z,971.85
2022-11-17T05:54:13.909Z,971.82
2022-11-17T05:55:13.301Z,971.86
2022-11-17T05:56:13.553Z,971.84
2022-11-17T05:57:13.522Z,971.84
2022-11-17T05:58:13.483Z,971.81
2022-11-17T05:59:13.455Z,971.85
2022-11-17T06:00:18.407Z,971.86
2022-11-17T06:01:13.580Z,971.92
2022-11-17T06:02:13.588Z,971.95
2022-11-17T06:03:13.394Z,971.95
2022-11-17T06:04:13.467Z,971.93
2022-11-17T06:05:19.833Z,971.98
2022-11-17T06:06:13.197Z,971.95
2022-11-17T06:07:13.259Z,971.95
2022-11-17T06:08:13.599Z,972.03
2022-11-17T06:09:13.651Z,971.98
2022-11-17T06:10:37.819Z,972.03
2022-11-17T06:11:13.870Z,972.06
2022-11-17T06:12:14.103Z,972.12
2022-11-17T06:13:13.315Z,972.06
2022-11-17T06:14:13.309Z,972.04
2022-11-17T06:15:13.411Z,972.02
2022-11-17T06:16:13.366Z,972.06
2022-11-17T06:17:15.197Z,972.07
2022-11-17T06:18:12.898Z,971.99
2022-11-17T06:19:18.034Z,972.00
2022-11-17T06:20:12.953Z,971.94
2022-11-17T06:21:14.027Z,972.03
2022-11-17T06:22:13.674Z,971.94
2022-11-17T06:23:13.083Z,971.99
2022-11-17T06:24:13.005Z,971.94
2022-11-17T06:25:13.006Z,971.93
2022-11-17T06:26:17.906Z,971.93
2022-11-17T06:27:13.076Z,971.89
2022-11-17T06:28:13.205Z,971.94
2022-11-17T06:29:13.288Z,971.86
2022-11-17T06:30:18.220Z,971.92
2022-11-17T06:31:13.171Z,971.93
2022-11-17T06:32:13.231Z,971.78
2022-11-17T06:33:13.547Z,971.84
2022-11-17T06:34:13.488Z,971.82
2022-11-17T06:35:14.800Z,971.73
2022-11-17T06:36:13.741Z,971.78
2022-11-17T06:37:23.903Z,971.81
2022-11-17T06:38:13.012Z,971.82
2022-11-17T06:39:13.241Z,971.81
2022-11-17T06:40:18.468Z,971.83
2022-11-17T06:41:13.770Z,971.88
2022-11-17T06:42:13.815Z,971.84
2022-11-17T06:43:14.004Z,971.89
2022-11-17T06:44:13.058Z,971.89
2022-11-17T06:45:13.222Z,971.94
2022-11-17T06:46:13.087Z,971.95
2022-11-17T06:47:14.115Z,971.89
2022-11-17T06:48:13.304Z,971.92
2022-11-17T06:49:13.687Z,971.94
2022-11-17T06:50:13.607Z,971.98
2022-11-17T06:51:14.078Z,972.00
2022-11-17T06:52:12.963Z,971.93
2022-11-17T06:53:12.975Z,971.98
2022-11-17T06:54:13.164Z,972.03
2022-11-17T06:55:13.148Z,972.06
2022-11-17T06:56:13.191Z,972.05
2022-11-17T06:57:13.142Z,972.05
2022-11-17T06:58:13.309Z,972.08
2022-11-17T06:59:13.615Z,972.09
2022-11-17T07:00:13.568Z,972.14
2022-11-17T07:01:13.636Z,972.15
2022-11-17T07:02:13.794Z,972.19
2022-11-17T07:03:13.908Z,972.25
2022-11-17T07:04:13.230Z,972.22
2022-11-17T07:05:13.474Z,972.19
2022-11-17T07:06:14.634Z,972.19
2022-11-17T07:07:13.903Z,972.14
2022-11-17T07:08:12.904Z,972.28
2022-11-17T07:09:12.744Z,972.19
2022-11-17T07:10:13.878Z,972.26
2022-11-17T07:11:14.158Z,972.24
2022-11-17T07:12:13.485Z,972.24
2022-11-17T07:13:13.653Z,972.24
2022-11-17T07:14:13.792Z,972.29
2022-11-17T07:15:14.053Z,972.32
2022-11-17T07:16:12.997Z,972.30
2022-11-17T07:17:13.103Z,972.29
2022-11-17T07:18:12.947Z,972.30
2022-11-17T07:19:12.951Z,972.28
2022-11-17T07:20:12.917Z,972.26
2022-11-17T07:21:12.835Z,972.21
2022-11-17T07:22:14.014Z,972.16
2022-11-17T07:23:12.972Z,972.17
2022-11-17T07:24:13.032Z,972.19
2022-11-17T07:25:12.970Z,972.16
2022-11-17T07:26:13.558Z,972.17
2022-11-17T07:27:13.615Z,972.16
2022-11-17T07:28:13.647Z,972.16
2022-11-17T07:29:13.592Z,972.20
2022-11-17T07:30:13.851Z,972.15
2022-11-17T07:31:13.850Z,972.20
2022-11-17T07:32:13.833Z,972.20
2022-11-17T07:33:13.926Z,972.19
2022-11-17T07:34:12.919Z,972.16
2022-11-17T07:35:13.213Z,972.21
2022-11-17T07:36:13.161Z,972.20
2022-11-17T07:37:13.601Z,972.15
2022-11-17T07:38:13.569Z,972.20
2022-11-17T07:39:19.943Z,972.18
2022-11-17T07:40:13.219Z,972.21
2022-11-17T07:41:13.069Z,972.20
2022-11-17T07:42:18.149Z,972.19
2022-11-17T07:43:13.587Z,972.19
2022-11-17T07:44:13.647Z,972.27
2022-11-17T07:45:13.696Z,972.22
2022-11-17T07:46:13.680Z,972.23
2022-11-17T07:47:13.807Z,972.20
2022-11-17T07:48:13.872Z,972.14
2022-11-17T07:49:13.826Z,972.20
2022-11-17T07:50:13.812Z,972.24
2022-11-17T07:51:13.647Z,972.24
2022-11-17T07:52:13.752Z,972.25
2022-11-17T07:53:13.904Z,972.23
2022-11-17T07:54:13.007Z,972.26
2022-11-17T07:55:12.916Z,972.28
2022-11-17T07:56:12.925Z,972.27
2022-11-17T07:57:12.851Z,972.30
2022-11-17T07:58:13.934Z,972.31
2022-11-17T07:59:17.140Z,972.31
2022-11-17T08:01:13.440Z,972.31
2022-11-17T08:02:14.904Z,972.31
2022-11-17T08:03:12.952Z,972.34
2022-11-17T08:04:13.138Z,972.32
2022-11-17T08:05:13.162Z,972.40
2022-11-17T08:06:13.484Z,972.41
2022-11-17T08:07:13.699Z,972.42
2022-11-17T08:08:13.906Z,972.42
2022-11-17T08:09:12.941Z,972.41
2022-11-17T08:10:12.832Z,972.47
2022-11-17T08:11:13.720Z,972.46
2022-11-17T08:12:13.621Z,972.50
2022-11-17T08:13:13.605Z,972.50
2022-11-17T08:14:13.711Z,972.45
2022-11-17T08:15:13.689Z,972.52
2022-11-17T08:16:13.755Z,972.54
2022-11-17T08:17:13.698Z,972.54
2022-11-17T08:18:13.740Z,972.61
2022-11-17T08:19:18.745Z,972.63
2022-11-17T08:20:13.813Z,972.60
2022-11-17T08:21:14.528Z,972.61
2022-11-17T08:22:13.476Z,972.62
2022-11-17T08:23:13.816Z,972.57
2022-11-17T08:24:13.794Z,972.60
2022-11-17T08:25:14.008Z,972.56
2022-11-17T08:26:13.095Z,972.60
2022-11-17T08:27:13.692Z,972.61
2022-11-17T08:28:13.939Z,972.57
2022-11-17T08:29:12.916Z,972.59
2022-11-17T08:30:12.814Z,972.59
2022-11-17T08:31:14.118Z,972.64
2022-11-17T08:32:13.343Z,972.57
2022-11-17T08:33:13.173Z,972.69
2022-11-17T08:34:13.306Z,972.68
2022-11-17T08:35:13.245Z,972.68
2022-11-17T08:36:13.195Z,972.75
2022-11-17T08:37:13.135Z,972.76
2022-11-17T08:38:13.067Z,972.74
2022-11-17T08:39:13.347Z,972.67
2022-11-17T08:40:13.327Z,972.81
2022-11-17T08:41:13.233Z,972.79
2022-11-17T08:42:13.180Z,972.84
2022-11-17T08:43:13.477Z,972.87
2022-11-17T08:44:13.785Z,972.86
2022-11-17T08:45:13.855Z,972.89
2022-11-17T08:46:13.890Z,972.84
2022-11-17T08:47:13.164Z,972.84
2022-11-17T08:48:13.590Z,972.87
2022-11-17T08:49:13.523Z,972.90
2022-11-17T08:50:13.455Z,972.88
2022-11-17T08:51:13.875Z,972.85
2022-11-17T08:52:14.174Z,972.90
2022-11-17T08:53:13.627Z,972.98
2022-11-17T08:54:13.633Z,973.08
2022-11-17T08:55:13.696Z,973.03
2022-11-17T08:56:14.135Z,973.19
2022-11-17T08:57:13.102Z,973.13
2022-11-17T08:58:13.195Z,973.16
2022-11-17T08:59:13.236Z,973.17
2022-11-17T09:00:13.256Z,973.15
2022-11-17T09:01:14.136Z,973.19
2022-11-17T09:02:18.537Z,973.22
2022-11-17T09:03:13.837Z,973.24
2022-11-17T09:04:13.839Z,973.27
2022-11-17T09:05:14.159Z,973.28
2022-11-17T09:06:13.885Z,973.33
2022-11-17T09:07:12.886Z,973.35
2022-11-17T09:08:43.360Z,973.38
2022-11-17T09:09:13.261Z,973.34
2022-11-17T09:10:13.155Z,973.37
2022-11-17T09:11:13.299Z,973.38
2022-11-17T09:12:13.630Z,973.41
2022-11-17T09:13:17.491Z,973.39
2022-11-17T09:14:13.733Z,973.42
2022-11-17T09:15:13.821Z,973.43
2022-11-17T09:16:13.748Z,973.45
2022-11-17T09:17:13.614Z,973.46
2022-11-17T09:18:13.645Z,973.46
2022-11-17T09:19:13.550Z,973.48
2022-11-17T09:20:13.533Z,973.49
2022-11-17T09:21:13.718Z,973.51
2022-11-17T09:22:13.849Z,973.55
2022-11-17T09:23:14.197Z,973.54
2022-11-17T09:24:13.532Z,973.54
2022-11-17T09:25:13.811Z,973.59
2022-11-17T09:26:12.904Z,973.59
2022-11-17T09:27:12.929Z,973.61
2022-11-17T09:28:12.835Z,973.65
2022-11-17T09:29:14.225Z,973.66
2022-11-17T09:30:13.059Z,973.66
2022-11-17T09:31:13.217Z,973.66
2022-11-17T09:32:13.195Z,973.71
2022-11-17T09:33:13.194Z,973.72
2022-11-17T09:34:13.123Z,973.71
2022-11-17T09:35:13.295Z,973.68
2022-11-17T09:36:13.336Z,973.71
2022-11-17T09:37:13.247Z,973.70
2022-11-17T09:38:13.128Z,973.71
2022-11-17T09:39:13.238Z,973.71
2022-11-17T09:40:13.391Z,973.74
2022-11-17T09:41:13.509Z,973.68
2022-11-17T09:42:13.356Z,973.72
2022-11-17T09:43:13.204Z,973.73
2022-11-17T09:44:13.165Z,973.74
2022-11-17T09:45:13.081Z,973.78
2022-11-17T09:46:13.115Z,973.75
2022-11-17T09:47:13.018Z,973.75
2022-11-17T09:48:43.552Z,973.76
2022-11-17T09:49:13.515Z,973.79
2022-11-17T09:50:14.000Z,973.74
2022-11-17T09:51:13.131Z,973.67
2022-11-17T09:52:14.097Z,973.70
2022-11-17T09:53:12.945Z,973.72
2022-11-17T09:54:12.908Z,973.69
2022-11-17T09:55:13.134Z,973.69
2022-11-17T09:56:13.033Z,973.70
2022-11-17T09:57:13.164Z,973.71
2022-11-17T09:58:13.393Z,973.71
2022-11-17T09:59:13.533Z,973.74
2022-11-17T10:00:13.754Z,973.73
2022-11-17T10:01:13.658Z,973.73
2022-11-17T10:02:13.594Z,973.74
2022-11-17T10:03:13.537Z,973.74
2022-11-17T10:04:13.534Z,973.77
2022-11-17T10:05:13.583Z,973.82
2022-11-17T10:06:13.535Z,973.81
2022-11-17T10:07:13.421Z,973.79
2022-11-17T10:08:13.498Z,973.85
2022-11-17T10:09:13.333Z,973.86
2022-11-17T10:10:13.375Z,973.83
2022-11-17T10:11:13.379Z,973.82
2022-11-17T10:12:13.194Z,973.83
2022-11-17T10:13:13.042Z,973.84
2022-11-17T10:14:12.960Z,973.86
2022-11-17T10:15:12.899Z,973.86
2022-11-17T10:16:12.890Z,973.88
2022-11-17T10:17:12.894Z,973.85
2022-11-17T10:18:13.110Z,973.86
2022-11-17T10:19:13.061Z,973.85
2022-11-17T10:20:13.078Z,973.83
2022-11-17T10:21:13.022Z,973.87
2022-11-17T10:22:12.936Z,973.90
2022-11-17T10:23:13.193Z,973.93
2022-11-17T10:24:13.151Z,973.92
2022-11-17T10:25:13.021Z,973.95
2022-11-17T10:26:13.214Z,973.94
2022-11-17T10:27:13.073Z,973.96
2022-11-17T10:28:12.976Z,973.99
2022-11-17T10:29:12.923Z,974.02
2022-11-17T10:30:12.991Z,973.96
2022-11-17T10:31:12.968Z,974.01
2022-11-17T10:32:13.243Z,974.01
2022-11-17T10:33:13.482Z,974.02
2022-11-17T10:34:13.590Z,974.02
2022-11-17T10:35:13.482Z,974.00
2022-11-17T10:36:13.592Z,973.99
2022-11-17T10:37:13.741Z,973.99
2022-11-17T10:38:13.641Z,974.02
2022-11-17T10:39:17.714Z,974.00
2022-11-17T10:40:12.903Z,973.95
2022-11-17T10:41:13.131Z,973.98
2022-11-17T10:42:13.190Z,974.01
2022-11-17T10:43:13.123Z,974.02
2022-11-17T10:44:13.442Z,974.02
2022-11-17T10:45:13.497Z,973.97
2022-11-17T10:46:13.767Z,974.05
2022-11-17T10:47:13.812Z,974.06
2022-11-17T10:48:13.648Z,974.05
2022-11-17T10:49:13.484Z,974.03
2022-11-17T10:50:13.338Z,974.06
2022-11-17T10:51:13.500Z,974.06
2022-11-17T10:52:13.397Z,974.11
2022-11-17T10:53:13.642Z,974.15
2022-11-17T10:54:13.649Z,974.19
2022-11-17T10:55:13.622Z,974.15
2022-11-17T10:56:13.554Z,974.10
2022-11-17T10:57:13.806Z,974.17
2022-11-17T10:58:29.002Z,974.19
2022-11-17T10:59:38.995Z,974.18
2022-11-17T11:01:13.271Z,974.22
2022-11-17T11:02:13.373Z,974.20
2022-11-17T11:03:13.205Z,974.22
2022-11-17T11:04:13.322Z,974.18
2022-11-17T11:05:13.243Z,974.23
2022-11-17T11:06:17.483Z,974.24
2022-11-17T11:07:13.733Z,974.23
2022-11-17T11:08:13.714Z,974.17
2022-11-17T11:09:13.615Z,974.20
2022-11-17T11:10:13.523Z,974.25
2022-11-17T11:11:13.697Z,974.19
2022-11-17T11:12:13.795Z,974.28
2022-11-17T11:13:13.634Z,974.21
2022-11-17T11:14:13.653Z,974.24
2022-11-17T11:15:13.550Z,974.23
2022-11-17T11:16:13.749Z,974.22
2022-11-17T11:17:13.610Z,974.19
2022-11-17T11:18:15.017Z,974.18
2022-11-17T11:19:13.028Z,974.19
2022-11-17T11:20:13.199Z,974.19
2022-11-17T11:21:13.313Z,974.19
2022-11-17T11:22:16.963Z,974.15
2022-11-17T11:23:13.394Z,974.16
2022-11-17T11:24:14.173Z,974.16
2022-11-17T11:25:13.385Z,974.19
2022-11-17T11:26:13.908Z,974.24
2022-11-17T11:27:12.818Z,974.20
2022-11-17T11:28:13.622Z,974.22
2022-11-17T11:29:13.716Z,974.27
2022-11-17T11:30:13.713Z,974.27
2022-11-17T11:31:15.580Z,974.31
2022-11-17T11:32:13.649Z,974.29
2022-11-17T11:33:13.536Z,974.28
2022-11-17T11:34:13.525Z,974.29
2022-11-17T11:35:17.326Z,974.32
2022-11-17T11:36:14.205Z,974.29
2022-11-17T11:37:13.253Z,974.30
2022-11-17T11:38:13.130Z,974.33
2022-11-17T11:39:13.371Z,974.32
2022-11-17T11:40:13.504Z,974.29
2022-11-17T11:41:13.615Z,974.36
2022-11-17T11:42:13.543Z,974.36
2022-11-17T11:43:13.634Z,974.39
2022-11-17T11:44:18.788Z,974.46
2022-11-17T11:45:12.902Z,974.43
2022-11-17T11:46:17.858Z,974.42
2022-11-17T11:47:18.873Z,974.46
2022-11-17T11:48:13.953Z,974.43
2022-11-17T11:49:12.995Z,974.41
2022-11-17T11:50:12.873Z,974.45
2022-11-17T11:51:13.783Z,974.47
2022-11-17T11:52:13.812Z,974.43
2022-11-17T11:53:13.962Z,974.46
2022-11-17T11:54:13.595Z,974.47
2022-11-17T11:55:13.764Z,974.46
2022-11-17T11:56:13.621Z,974.43
2022-11-17T11:57:13.471Z,974.47
2022-11-17T11:58:13.431Z,974.49
2022-11-17T11:59:13.425Z,974.50
2022-11-17T12:00:13.363Z,974.50
2022-11-17T12:01:13.502Z,974.49
2022-11-17T12:02:13.550Z,974.53
2022-11-17T12:04:14.138Z,974.58
2022-11-17T12:05:13.365Z,974.59
2022-11-17T12:06:13.373Z,974.57
2022-11-17T12:07:13.505Z,974.55
2022-11-17T12:08:13.794Z,974.61
2022-11-17T12:09:13.912Z,974.60
2022-11-17T12:10:13.365Z,974.61
2022-11-17T12:11:13.351Z,974.66
2022-11-17T12:12:13.747Z,974.66
2022-11-17T12:13:13.814Z,974.69
2022-11-17T12:14:14.092Z,974.67
2022-11-17T12:15:13.267Z,974.67
2022-11-17T12:16:13.309Z,974.64
2022-11-17T12:17:13.215Z,974.58
2022-11-17T12:18:13.185Z,974.65
2022-11-17T12:19:13.064Z,974.66
2022-11-17T12:20:13.033Z,974.64
2022-11-17T12:21:13.177Z,974.61
2022-11-17T12:22:13.454Z,974.65
2022-11-17T12:23:15.194Z,974.63
2022-11-17T12:24:13.786Z,974.60
2022-11-17T12:25:18.132Z,974.60
2022-11-17T12:26:13.056Z,974.68
2022-11-17T12:27:13.490Z,974.61
2022-11-17T12:28:13.525Z,974.71
2022-11-17T12:29:13.493Z,974.68
2022-11-17T12:30:13.445Z,974.68
2022-11-17T12:31:13.369Z,974.73